createdAt,value
2018-07-24T00:02:22.580Z,101277.25
2018-07-24T00:07:32.211Z,101279.05
2018-07-24T00:12:42.300Z,101275.88
2018-07-24T00:17:51.855Z,101277.80
2018-07-24T00:23:00.997Z,101277.80
2018-07-24T00:28:10.551Z,101272.28
2018-07-24T00:33:20.072Z,101277.35
2018-07-24T00:38:29.323Z,101268.20
2018-07-24T00:43:38.661Z,101265.56
2018-07-24T00:48:48.167Z,101271.36
2018-07-24T00:53:57.538Z,101264.87
2018-07-24T00:59:06.811Z,101267.35
2018-07-24T01:04:16.192Z,101265.45
2018-07-24T01:09:24.861Z,101263.77
2018-07-24T01:14:34.196Z,101261.41
2018-07-24T01:19:43.184Z,101267.24
2018-07-24T01:24:52.334Z,101266.86
2018-07-24T01:30:01.128Z,101271.00
2018-07-24T01:35:10.625Z,101272.53
2018-07-24T01:40:20.286Z,101267.01
2018-07-24T01:45:29.747Z,101270.44
2018-07-24T01:50:38.635Z,101269.87
2018-07-24T01:55:48.428Z,101267.77
2018-07-24T02:00:57.618Z,101267.59
2018-07-24T02:06:06.548Z,101261.80
2018-07-24T02:11:16.289Z,101264.81
2018-07-24T02:16:25.994Z,101261.83
2018-07-24T02:21:35.389Z,101263.81
2018-07-24T02:26:44.611Z,101254.64
2018-07-24T02:31:53.949Z,101260.25
2018-07-24T02:37:03.594Z,101265.30
2018-07-24T02:42:13.034Z,101259.32
2018-07-24T02:47:22.533Z,101254.11
2018-07-24T02:52:31.964Z,101256.00
2018-07-24T02:57:41.494Z,101261.60
2018-07-24T03:02:51.357Z,101260.45
2018-07-24T03:08:00.889Z,101266.66
2018-07-24T03:13:10.186Z,101265.34
2018-07-24T03:18:18.926Z,101267.25
2018-07-24T03:23:28.845Z,101267.63
2018-07-24T03:28:38.625Z,101270.56
2018-07-24T03:33:47.772Z,101277.47
2018-07-24T03:38:56.671Z,101278.61
2018-07-24T03:44:06.657Z,101280.38
2018-07-24T03:49:16.111Z,101280.67
2018-07-24T03:54:25.127Z,101279.73
2018-07-24T03:59:34.210Z,101284.98
2018-07-24T04:04:43.887Z,101277.13
2018-07-24T04:09:52.830Z,101282.92
2018-07-24T04:15:01.712Z,101276.98
2018-07-24T04:20:10.684Z,101282.38
2018-07-24T04:25:19.535Z,101285.98
2018-07-24T04:30:28.542Z,101285.80
2018-07-24T04:35:37.686Z,101273.13
2018-07-24T04:40:47.143Z,101271.37
2018-07-24T04:45:55.797Z,101275.06
2018-07-24T04:51:05.353Z,101276.27
2018-07-24T04:56:15.095Z,101283.94
2018-07-24T05:01:24.905Z,101280.91
2018-07-24T05:06:35.114Z,101279.00
2018-07-24T05:11:44.265Z,101282.99
2018-07-24T05:16:53.566Z,101284.52
2018-07-24T05:22:02.890Z,101286.34
2018-07-24T05:27:13.059Z,101294.27
2018-07-24T05:32:22.746Z,101287.20
2018-07-24T05:37:32.800Z,101285.17
2018-07-24T05:42:42.373Z,101277.98
2018-07-24T05:47:51.921Z,101288.19
2018-07-24T05:53:02.107Z,101288.34
2018-07-24T05:58:11.923Z,101292.89
2018-07-24T06:03:21.420Z,101296.04
2018-07-24T06:08:31.941Z,101292.83
2018-07-24T06:13:41.735Z,101291.37
2018-07-24T06:18:51.589Z,101298.14
2018-07-24T06:24:00.949Z,101292.44
2018-07-24T06:29:10.513Z,101292.78
2018-07-24T06:34:19.506Z,101291.27
2018-07-24T06:39:28.454Z,101290.49
2018-07-24T06:44:41.781Z,101284.61
2018-07-24T06:49:51.001Z,101285.45
2018-07-24T06:55:00.482Z,101286.08
2018-07-24T07:00:10.365Z,101295.36
2018-07-24T07:05:19.972Z,101294.75
2018-07-24T07:10:29.099Z,101294.09
2018-07-24T07:15:38.138Z,101293.73
2018-07-24T07:20:47.955Z,101284.39
2018-07-24T07:25:57.099Z,101298.13
2018-07-24T07:31:07.126Z,101295.23
2018-07-24T07:36:16.704Z,101290.48
2018-07-24T07:41:26.707Z,101284.10
2018-07-24T07:46:36.224Z,101278.91
2018-07-24T07:51:46.140Z,101280.52
2018-07-24T07:56:55.656Z,101270.45
2018-07-24T08:02:05.791Z,101267.63
2018-07-24T08:07:15.096Z,101269.98
2018-07-24T08:12:24.074Z,101265.02
2018-07-24T08:17:33.533Z,101256.95
2018-07-24T08:22:43.211Z,101263.72
2018-07-24T08:27:52.215Z,101263.02
2018-07-24T08:33:02.836Z,101254.98
2018-07-24T08:38:12.044Z,101256.02
2018-07-24T08:43:21.282Z,101241.33
2018-07-24T08:48:30.403Z,101242.45
2018-07-24T08:53:40.177Z,101233.31
2018-07-24T08:58:49.146Z,101227.23
2018-07-24T09:03:58.071Z,101227.53
2018-07-24T09:09:08.961Z,101224.26
2018-07-24T09:14:18.520Z,101214.19
2018-07-24T09:19:28.194Z,101217.61
2018-07-24T09:24:38.885Z,101213.80
2018-07-24T09:29:47.774Z,101213.89
2018-07-24T09:34:56.754Z,101206.41
2018-07-24T09:40:07.743Z,101205.20
2018-07-24T09:45:17.246Z,101204.10
2018-07-24T09:50:26.364Z,101203.23
2018-07-24T09:55:37.188Z,101206.17
2018-07-24T10:00:46.742Z,101200.95
2018-07-24T10:05:56.650Z,101190.92
2018-07-24T10:11:07.552Z,101197.61
2018-07-24T10:16:16.640Z,101181.24
2018-07-24T10:21:25.677Z,101182.76
2018-07-24T10:26:35.768Z,101181.61
2018-07-24T10:31:45.327Z,101180.73
2018-07-24T10:36:54.905Z,101175.05
2018-07-24T10:42:04.536Z,101172.88
2018-07-24T10:47:14.478Z,101160.89
2018-07-24T10:52:23.870Z,101154.66
2018-07-24T10:57:34.484Z,101150.96
2018-07-24T11:02:45.097Z,101137.28
2018-07-24T11:07:54.433Z,101138.25
2018-07-24T11:13:04.353Z,101128.94
2018-07-24T11:18:14.075Z,101135.71
2018-07-24T11:23:23.962Z,101129.00
2018-07-24T11:28:34.257Z,101129.69
2018-07-24T11:33:44.265Z,101120.67
2018-07-24T11:38:53.842Z,101111.63
2018-07-24T11:44:03.250Z,101121.60
2018-07-24T11:49:13.480Z,101122.28
2018-07-24T11:54:23.206Z,101115.70
2018-07-24T11:59:33.064Z,101104.99
2018-07-24T12:04:43.068Z,101097.57
2018-07-24T12:09:53.006Z,101094.36
2018-07-24T12:15:02.500Z,101090.11
2018-07-24T12:20:11.720Z,101089.62
2018-07-24T12:25:21.178Z,101082.76
2018-07-24T12:30:30.201Z,101077.93
2018-07-24T12:35:40.230Z,101077.45
2018-07-24T12:40:49.823Z,101072.83
2018-07-24T12:45:59.048Z,101061.20
2018-07-24T12:51:09.029Z,101067.48
2018-07-24T12:56:18.484Z,101067.14
2018-07-24T13:01:28.001Z,101061.72
2018-07-24T13:06:37.280Z,101059.93
2018-07-24T13:11:47.060Z,101050.97
2018-07-24T13:16:56.387Z,101046.77
2018-07-24T13:22:05.548Z,101050.69
2018-07-24T13:27:15.046Z,101050.65
2018-07-24T13:32:24.581Z,101038.48
2018-07-24T13:37:33.902Z,101042.39
2018-07-24T13:42:44.709Z,101038.81
2018-07-24T13:48:00.936Z,101028.91
2018-07-24T13:53:10.372Z,101031.30
2018-07-24T13:58:19.531Z,101043.79
2018-07-24T14:03:28.672Z,101038.24
2018-07-24T14:08:38.667Z,101030.97
2018-07-24T14:13:48.763Z,101024.05
2018-07-24T14:18:58.230Z,101027.72
2018-07-24T14:24:07.890Z,101037.00
2018-07-24T14:29:17.471Z,101020.31
2018-07-24T14:34:27.453Z,101015.83
2018-07-24T14:39:36.707Z,101003.14
2018-07-24T14:44:46.184Z,101013.17
2018-07-24T14:49:55.961Z,101014.00
2018-07-24T14:55:05.966Z,101006.78
2018-07-24T15:00:15.708Z,101012.98
2018-07-24T15:05:25.663Z,101011.55
2018-07-24T15:10:35.640Z,100995.95
2018-07-24T15:15:45.148Z,100999.52
2018-07-24T15:20:54.972Z,100992.16
2018-07-24T15:26:05.449Z,101000.09
2018-07-24T15:31:15.021Z,100990.25
2018-07-24T15:36:24.163Z,100988.48
2018-07-24T15:41:34.138Z,100985.52
2018-07-24T15:46:43.908Z,100977.94
2018-07-24T15:51:53.675Z,100976.02
2018-07-24T15:57:04.460Z,100971.14
2018-07-24T16:02:14.704Z,100978.80
2018-07-24T16:07:24.159Z,100966.55
2018-07-24T16:12:33.297Z,100976.88
2018-07-24T16:17:42.980Z,100968.54
2018-07-24T16:22:52.347Z,100968.54
2018-07-24T16:28:02.119Z,100962.65
2018-07-24T16:33:11.722Z,100960.30
2018-07-24T16:38:21.816Z,100957.52
2018-07-24T16:43:31.920Z,100963.06
2018-07-24T16:48:41.494Z,100961.34
2018-07-24T16:53:51.281Z,100946.17
2018-07-24T16:59:01.424Z,100948.65
2018-07-24T17:04:11.096Z,100941.34
2018-07-24T17:09:21.078Z,100940.67
2018-07-24T17:14:30.861Z,100945.77
2018-07-24T17:19:40.828Z,100940.71
2018-07-24T17:24:50.306Z,100947.23
2018-07-24T17:30:00.276Z,100945.56
2018-07-24T17:35:09.893Z,100952.16
2018-07-24T17:40:19.236Z,100944.00
2018-07-24T17:45:28.934Z,100949.31
2018-07-24T17:50:38.723Z,100955.13
2018-07-24T17:55:48.655Z,100962.20
2018-07-24T18:00:58.150Z,100971.27
2018-07-24T18:06:08.255Z,100970.56
2018-07-24T18:11:17.330Z,100975.33
2018-07-24T18:16:27.049Z,100975.28
2018-07-24T18:21:36.257Z,100984.38
2018-07-24T18:26:46.044Z,100982.95
2018-07-24T18:31:55.077Z,100975.61
2018-07-24T18:37:04.771Z,100984.67
2018-07-24T18:42:13.877Z,100991.77
2018-07-24T18:47:22.734Z,100982.63
2018-07-24T18:52:32.347Z,100980.25
2018-07-24T18:57:41.261Z,100981.87
2018-07-24T19:02:50.530Z,100988.61
2018-07-24T19:08:00.673Z,100988.61
2018-07-24T19:13:10.022Z,100998.51
2018-07-24T19:18:19.067Z,100990.81
2018-07-24T19:23:31.247Z,100989.41
2018-07-24T19:28:40.722Z,100995.33
2018-07-24T19:33:49.620Z,101002.08
2018-07-24T19:38:58.877Z,100999.15
2018-07-24T19:44:09.427Z,100999.93
2018-07-24T19:49:21.645Z,101002.47
2018-07-24T19:54:31.311Z,101004.13
2018-07-24T19:59:43.223Z,101007.00
2018-07-24T20:04:52.598Z,101008.58
2018-07-24T20:10:05.769Z,101009.97
2018-07-24T20:15:17.797Z,101013.34
2018-07-24T20:20:32.114Z,101015.90
2018-07-24T20:25:42.135Z,101020.61
2018-07-24T20:30:54.398Z,101023.02
2018-07-24T20:36:03.989Z,101026.66
2018-07-24T20:41:13.660Z,101026.84
2018-07-24T20:46:22.945Z,101027.10
2018-07-24T20:51:32.848Z,101031.71
2018-07-24T20:56:45.080Z,101032.66
2018-07-24T21:01:56.704Z,101039.88
2018-07-24T21:07:06.511Z,101033.08
2018-07-24T21:12:17.017Z,101040.49
2018-07-24T21:17:33.436Z,101038.42
2018-07-24T21:22:46.162Z,101043.64
2018-07-24T21:27:56.362Z,101045.53
2018-07-24T21:33:09.501Z,101051.00
2018-07-24T21:38:18.999Z,101056.11
2018-07-24T21:43:29.311Z,101058.45
2018-07-24T21:48:40.935Z,101060.91
2018-07-24T21:53:51.821Z,101057.89
2018-07-24T21:59:03.020Z,101058.73
2018-07-24T22:04:14.977Z,101053.72
2018-07-24T22:09:24.293Z,101050.72
2018-07-24T22:14:33.405Z,101061.17
2018-07-24T22:19:44.102Z,101061.47
2018-07-24T22:24:53.050Z,101061.00
2018-07-24T22:30:02.234Z,101058.83
2018-07-24T22:35:11.517Z,101065.30
2018-07-24T22:40:20.908Z,101068.73
2018-07-24T22:45:30.153Z,101065.41
2018-07-24T22:50:39.205Z,101073.39
2018-07-24T22:55:49.020Z,101074.05
2018-07-24T23:00:57.821Z,101083.88
2018-07-24T23:06:06.950Z,101080.05
2018-07-24T23:11:16.016Z,101080.01
2018-07-24T23:16:24.688Z,101077.84
2018-07-24T23:21:33.676Z,101077.45
2018-07-24T23:26:42.850Z,101083.38
2018-07-24T23:31:51.877Z,101083.85
2018-07-24T23:37:00.669Z,101077.22
2018-07-24T23:42:09.968Z,101080.09
2018-07-24T23:47:19.376Z,101073.95
2018-07-24T23:52:28.307Z,101072.13
2018-07-24T23:57:37.694Z,101076.55
